createdAt,value
2018-11-04T00:00:03.202Z,11.52
2018-11-04T00:01:02.656Z,11.52
2018-11-04T00:02:02.584Z,11.54
2018-11-04T00:03:02.552Z,11.54
2018-11-04T00:04:02.559Z,11.52
2018-11-04T00:05:02.536Z,11.52
2018-11-04T00:06:02.590Z,11.54
2018-11-04T00:07:02.534Z,11.52
2018-11-04T00:08:02.840Z,11.52
2018-11-04T00:09:02.659Z,11.52
2018-11-04T00:10:02.557Z,11.54
2018-11-04T00:11:02.568Z,11.52
2018-11-04T00:12:02.861Z,11.48
2018-11-04T00:13:02.639Z,11.51
2018-11-04T00:14:02.574Z,11.49
2018-11-04T00:15:02.914Z,11.52
2018-11-04T00:16:02.532Z,11.51
2018-11-04T00:17:02.557Z,11.49
2018-11-04T00:18:02.545Z,11.49
2018-11-04T00:19:02.560Z,11.48
2018-11-04T00:20:02.541Z,11.49
2018-11-04T00:21:02.535Z,11.44
2018-11-04T00:22:02.561Z,11.45
2018-11-04T00:23:02.496Z,11.47
2018-11-04T00:24:03.089Z,11.48
2018-11-04T00:25:02.642Z,11.48
2018-11-04T00:26:02.778Z,11.45
2018-11-04T00:27:02.736Z,11.47
2018-11-04T00:28:02.788Z,11.48
2018-11-04T00:29:02.991Z,11.47
2018-11-04T00:30:02.551Z,11.48
2018-11-04T00:31:02.793Z,11.41
2018-11-04T00:32:02.581Z,11.45
2018-11-04T00:33:02.557Z,11.41
2018-11-04T00:34:02.515Z,11.41
2018-11-04T00:35:02.560Z,11.41
2018-11-04T00:36:02.569Z,11.42
2018-11-04T00:37:02.636Z,11.42
2018-11-04T00:38:02.651Z,11.42
2018-11-04T00:39:02.515Z,11.38
2018-11-04T00:40:02.524Z,11.39
2018-11-04T00:41:02.528Z,11.41
2018-11-04T00:42:02.612Z,11.38
2018-11-04T00:43:02.524Z,11.38
2018-11-04T00:44:02.492Z,11.38
2018-11-04T00:45:02.728Z,11.38
2018-11-04T00:46:02.478Z,11.39
2018-11-04T00:47:02.507Z,11.42
2018-11-04T00:48:02.527Z,11.39
2018-11-04T00:49:02.563Z,11.38
2018-11-04T00:50:02.531Z,11.38
2018-11-04T00:51:02.496Z,11.37
2018-11-04T00:52:02.533Z,11.35
2018-11-04T00:53:02.501Z,11.37
2018-11-04T00:54:02.624Z,11.37
2018-11-04T00:55:02.540Z,11.35
2018-11-04T00:56:02.493Z,11.37
2018-11-04T00:57:02.498Z,11.35
2018-11-04T00:58:02.550Z,11.38
2018-11-04T00:59:02.531Z,11.37
2018-11-04T01:00:02.497Z,11.39
2018-11-04T01:01:02.604Z,11.37
2018-11-04T01:02:02.451Z,11.41
2018-11-04T01:03:02.627Z,11.41
2018-11-04T01:04:02.516Z,11.41
2018-11-04T01:05:02.822Z,11.42
2018-11-04T01:06:02.648Z,11.39
2018-11-04T01:07:02.471Z,11.41
2018-11-04T01:08:02.543Z,11.41
2018-11-04T01:09:02.914Z,11.39
2018-11-04T01:10:02.846Z,11.39
2018-11-04T01:11:02.635Z,11.38
2018-11-04T01:12:02.539Z,11.37
2018-11-04T01:13:02.665Z,11.35
2018-11-04T01:14:02.531Z,11.35
2018-11-04T01:15:02.556Z,11.39
2018-11-04T01:16:02.439Z,11.35
2018-11-04T01:17:02.521Z,11.38
2018-11-04T01:18:02.498Z,11.37
2018-11-04T01:19:02.569Z,11.37
2018-11-04T01:20:02.468Z,11.35
2018-11-04T01:21:02.652Z,11.34
2018-11-04T01:22:02.507Z,11.35
2018-11-04T01:23:02.448Z,11.35
2018-11-04T01:24:02.431Z,11.35
2018-11-04T01:25:02.443Z,11.37
2018-11-04T01:26:02.463Z,11.35
2018-11-04T01:27:02.546Z,11.38
2018-11-04T01:28:02.493Z,11.35
2018-11-04T01:29:02.473Z,11.38
2018-11-04T01:30:02.731Z,11.38
2018-11-04T01:31:02.710Z,11.41
2018-11-04T01:32:02.409Z,11.38
2018-11-04T01:33:02.409Z,11.39
2018-11-04T01:34:02.412Z,11.38
2018-11-04T01:35:02.432Z,11.38
2018-11-04T01:36:02.493Z,11.35
2018-11-04T01:37:02.437Z,11.35
2018-11-04T01:38:02.432Z,11.35
2018-11-04T01:39:02.417Z,11.35
2018-11-04T01:40:02.402Z,11.35
2018-11-04T01:41:02.768Z,11.34
2018-11-04T01:42:02.428Z,11.34
2018-11-04T01:43:02.458Z,11.35
2018-11-04T01:44:02.791Z,11.35
2018-11-04T01:45:02.394Z,11.34
2018-11-04T01:46:02.411Z,11.37
2018-11-04T01:47:02.537Z,11.37
2018-11-04T01:48:02.456Z,11.35
2018-11-04T01:49:02.465Z,11.32
2018-11-04T01:50:02.423Z,11.34
2018-11-04T01:51:02.414Z,11.34
2018-11-04T01:52:02.523Z,11.32
2018-11-04T01:53:02.695Z,11.34
2018-11-04T01:54:02.440Z,11.35
2018-11-04T01:55:02.576Z,11.31
2018-11-04T01:56:02.437Z,11.32
2018-11-04T01:57:02.442Z,11.32
2018-11-04T01:58:02.443Z,11.31
2018-11-04T01:59:02.496Z,11.32
2018-11-04T02:00:02.706Z,11.32
2018-11-04T02:01:02.406Z,11.32
2018-11-04T02:02:02.610Z,11.3
2018-11-04T02:03:02.437Z,11.32
2018-11-04T02:04:02.503Z,11.3
2018-11-04T02:05:02.364Z,11.32
2018-11-04T02:06:02.636Z,11.31
2018-11-04T02:07:02.529Z,11.31
2018-11-04T02:08:02.449Z,11.32
2018-11-04T02:09:02.376Z,11.31
2018-11-04T02:10:02.409Z,11.31
2018-11-04T02:11:02.442Z,11.32
2018-11-04T02:12:02.757Z,11.31
2018-11-04T02:13:02.510Z,11.32
2018-11-04T02:14:02.691Z,11.31
2018-11-04T02:15:02.536Z,11.31
2018-11-04T02:16:02.615Z,11.3
2018-11-04T02:17:02.497Z,11.3
2018-11-04T02:18:02.537Z,11.3
2018-11-04T02:19:02.487Z,11.31
2018-11-04T02:20:02.372Z,11.28
2018-11-04T02:21:02.384Z,11.3
2018-11-04T02:22:02.354Z,11.31
2018-11-04T02:23:02.393Z,11.31
2018-11-04T02:24:02.386Z,11.32
2018-11-04T02:25:02.346Z,11.31
2018-11-04T02:26:02.392Z,11.31
2018-11-04T02:27:02.484Z,11.32
2018-11-04T02:28:02.390Z,11.34
2018-11-04T02:29:02.354Z,11.3
2018-11-04T02:30:02.388Z,11.32
2018-11-04T02:31:02.546Z,11.34
2018-11-04T02:32:02.362Z,11.35
2018-11-04T02:33:02.334Z,11.32
2018-11-04T02:34:02.470Z,11.32
2018-11-04T02:35:02.348Z,11.3
2018-11-04T02:36:02.551Z,11.3
2018-11-04T02:37:02.516Z,11.3
2018-11-04T02:38:02.334Z,11.3
2018-11-04T02:39:02.400Z,11.31
2018-11-04T02:40:02.614Z,11.3
2018-11-04T02:41:02.374Z,11.3
2018-11-04T02:42:02.458Z,11.31
2018-11-04T02:43:02.323Z,11.3
2018-11-04T02:44:02.589Z,11.31
2018-11-04T02:45:02.416Z,11.3
2018-11-04T02:46:02.415Z,11.28
2018-11-04T02:47:02.957Z,11.3
2018-11-04T02:48:02.392Z,11.28
2018-11-04T02:49:02.339Z,11.3
2018-11-04T02:50:02.473Z,11.28
2018-11-04T02:51:02.410Z,11.28
2018-11-04T02:52:02.349Z,11.3
2018-11-04T02:53:02.705Z,11.31
2018-11-04T02:54:02.696Z,11.31
2018-11-04T02:55:02.413Z,11.31
2018-11-04T02:56:02.313Z,11.31
2018-11-04T02:57:02.465Z,11.31
2018-11-04T02:58:02.447Z,11.31
2018-11-04T02:59:02.361Z,11.3
2018-11-04T03:00:02.606Z,11.31
2018-11-04T03:01:02.313Z,11.3
2018-11-04T03:02:02.707Z,11.3
2018-11-04T03:03:02.308Z,11.32
2018-11-04T03:04:02.341Z,11.31
2018-11-04T03:05:02.291Z,11.31
2018-11-04T03:06:02.346Z,11.32
2018-11-04T03:07:02.345Z,11.31
2018-11-04T03:08:02.709Z,11.31
2018-11-04T03:09:02.290Z,11.31
2018-11-04T03:10:02.275Z,11.28
2018-11-04T03:11:02.289Z,11.31
2018-11-04T03:12:02.290Z,11.27
2018-11-04T03:13:02.285Z,11.3
2018-11-04T03:14:02.263Z,11.28
2018-11-04T03:15:02.303Z,11.3
2018-11-04T03:16:02.317Z,11.27
2018-11-04T03:17:02.261Z,11.28
2018-11-04T03:18:02.360Z,11.3
2018-11-04T03:19:02.263Z,11.3
2018-11-04T03:20:02.316Z,11.28
2018-11-04T03:21:02.282Z,11.3
2018-11-04T03:22:02.304Z,11.28
2018-11-04T03:23:02.368Z,11.28
2018-11-04T03:24:02.318Z,11.28
2018-11-04T03:25:02.323Z,11.28
2018-11-04T03:26:02.461Z,11.28
2018-11-04T03:27:02.653Z,11.28
2018-11-04T03:28:02.427Z,11.27
2018-11-04T03:29:02.334Z,11.28
2018-11-04T03:30:02.452Z,11.3
2018-11-04T03:31:02.488Z,11.31
2018-11-04T03:32:02.364Z,11.31
2018-11-04T03:33:02.242Z,11.3
2018-11-04T03:34:03.062Z,11.28
2018-11-04T03:35:02.342Z,11.3
2018-11-04T03:36:02.347Z,11.28
2018-11-04T03:37:02.355Z,11.3
2018-11-04T03:38:02.477Z,11.28
2018-11-04T03:39:02.358Z,11.3
2018-11-04T03:40:02.275Z,11.28
2018-11-04T03:41:02.242Z,11.28
2018-11-04T03:42:02.268Z,11.28
2018-11-04T03:43:02.241Z,11.3
2018-11-04T03:44:02.283Z,11.28
2018-11-04T03:45:02.484Z,11.27
2018-11-04T03:46:02.235Z,11.31
2018-11-04T03:47:02.223Z,11.3
2018-11-04T03:48:02.211Z,11.31
2018-11-04T03:49:02.675Z,11.31
2018-11-04T03:50:02.316Z,11.27
2018-11-04T03:51:02.406Z,11.3
2018-11-04T03:52:02.218Z,11.28
2018-11-04T03:53:02.234Z,11.25
2018-11-04T03:54:02.261Z,11.3
2018-11-04T03:55:02.473Z,11.3
2018-11-04T03:56:02.479Z,11.3
2018-11-04T03:57:02.355Z,11.28
2018-11-04T03:58:02.253Z,11.3
2018-11-04T03:59:02.692Z,11.31
2018-11-04T04:00:02.497Z,11.27
2018-11-04T04:01:02.236Z,11.28
2018-11-04T04:02:02.515Z,11.3
2018-11-04T04:03:02.255Z,11.3
2018-11-04T04:04:02.208Z,11.27
2018-11-04T04:05:02.354Z,11.3
2018-11-04T04:06:02.544Z,11.31
2018-11-04T04:07:02.376Z,11.31
2018-11-04T04:08:02.305Z,11.27
2018-11-04T04:09:02.190Z,11.3
2018-11-04T04:10:02.215Z,11.31
2018-11-04T04:11:02.281Z,11.3
2018-11-04T04:12:02.313Z,11.31
2018-11-04T04:13:02.406Z,11.31
2018-11-04T04:14:02.268Z,11.3
2018-11-04T04:15:02.343Z,11.28
2018-11-04T04:16:02.713Z,11.3
2018-11-04T04:17:02.530Z,11.28
2018-11-04T04:18:02.220Z,11.31
2018-11-04T04:19:02.274Z,11.28
2018-11-04T04:20:02.195Z,11.3
2018-11-04T04:21:02.264Z,11.3
2018-11-04T04:22:02.205Z,11.3
2018-11-04T04:23:02.323Z,11.31
2018-11-04T04:24:02.189Z,11.3
2018-11-04T04:25:02.283Z,11.31
2018-11-04T04:26:02.198Z,11.32
2018-11-04T04:27:02.477Z,11.32
2018-11-04T04:28:02.210Z,11.32
2018-11-04T04:29:02.258Z,11.32
2018-11-04T04:30:02.542Z,11.32
2018-11-04T04:31:02.222Z,11.34
2018-11-04T04:32:02.154Z,11.31
2018-11-04T04:33:02.191Z,11.3
2018-11-04T04:34:02.218Z,11.3
2018-11-04T04:35:02.180Z,11.32
2018-11-04T04:36:02.192Z,11.3
2018-11-04T04:37:02.160Z,11.3
2018-11-04T04:38:02.152Z,11.31
2018-11-04T04:39:02.167Z,11.3
2018-11-04T04:40:02.188Z,11.3
2018-11-04T04:41:02.195Z,11.31
2018-11-04T04:42:02.206Z,11.31
2018-11-04T04:43:02.245Z,11.32
2018-11-04T04:44:02.144Z,11.3
2018-11-04T04:45:02.146Z,11.31
2018-11-04T04:46:02.347Z,11.31
2018-11-04T04:47:02.141Z,11.31
2018-11-04T04:48:02.189Z,11.32
2018-11-04T04:49:02.146Z,11.27
2018-11-04T04:50:02.131Z,11.3
2018-11-04T04:51:02.142Z,11.3
2018-11-04T04:52:02.209Z,11.3
2018-11-04T04:53:02.207Z,11.28
2018-11-04T04:54:02.301Z,11.27
2018-11-04T04:55:02.137Z,11.3
2018-11-04T04:56:02.175Z,11.31
2018-11-04T04:57:02.140Z,11.28
2018-11-04T04:58:02.188Z,11.28
2018-11-04T04:59:02.206Z,11.31
2018-11-04T05:00:02.441Z,11.28
2018-11-04T05:01:02.153Z,11.27
2018-11-04T05:02:02.219Z,11.28
2018-11-04T05:03:02.520Z,11.3
2018-11-04T05:04:02.163Z,11.27
2018-11-04T05:05:02.360Z,11.25
2018-11-04T05:06:02.167Z,11.24
2018-11-04T05:07:02.173Z,11.28
2018-11-04T05:08:02.164Z,11.28
2018-11-04T05:09:02.301Z,11.27
2018-11-04T05:10:02.970Z,11.27
2018-11-04T05:11:02.124Z,11.27
2018-11-04T05:12:02.119Z,11.28
2018-11-04T05:13:02.138Z,11.25
2018-11-04T05:14:02.170Z,11.24
2018-11-04T05:15:02.422Z,11.27
2018-11-04T05:16:02.139Z,11.27
2018-11-04T05:17:02.224Z,11.27
2018-11-04T05:18:02.937Z,11.27
2018-11-04T05:19:02.449Z,11.28
2018-11-04T05:20:02.227Z,11.27
2018-11-04T05:21:02.131Z,11.25
2018-11-04T05:22:02.079Z,11.3
2018-11-04T05:23:02.085Z,11.28
2018-11-04T05:24:02.355Z,11.28
2018-11-04T05:25:02.136Z,11.27
2018-11-04T05:26:02.241Z,11.27
2018-11-04T05:27:02.186Z,11.25
2018-11-04T05:28:02.134Z,11.27
2018-11-04T05:29:02.092Z,11.28
2018-11-04T05:30:02.284Z,11.27
2018-11-04T05:31:02.137Z,11.24
2018-11-04T05:32:02.233Z,11.25
2018-11-04T05:33:02.304Z,11.25
2018-11-04T05:34:02.161Z,11.24
2018-11-04T05:35:02.275Z,11.27
2018-11-04T05:36:02.194Z,11.27
2018-11-04T05:37:02.585Z,11.25
2018-11-04T05:38:02.231Z,11.25
2018-11-04T05:39:02.166Z,11.25
2018-11-04T05:40:02.063Z,11.27
2018-11-04T05:41:02.063Z,11.27
2018-11-04T05:42:02.273Z,11.27
2018-11-04T05:43:02.127Z,11.25
2018-11-04T05:44:02.057Z,11.25
2018-11-04T05:45:02.380Z,11.27
2018-11-04T05:46:02.210Z,11.24
2018-11-04T05:47:02.229Z,11.27
2018-11-04T05:48:02.464Z,11.27
2018-11-04T05:49:02.143Z,11.24
2018-11-04T05:50:02.081Z,11.24
2018-11-04T05:51:02.069Z,11.24
2018-11-04T05:52:02.053Z,11.25
2018-11-04T05:53:02.065Z,11.27
2018-11-04T05:54:02.121Z,11.27
2018-11-04T05:55:02.057Z,11.24
2018-11-04T05:56:02.050Z,11.25
2018-11-04T05:57:02.283Z,11.24
2018-11-04T05:58:02.076Z,11.24
2018-11-04T05:59:02.100Z,11.27
2018-11-04T06:00:02.089Z,11.24
2018-11-04T06:01:02.068Z,11.28
2018-11-04T06:02:02.075Z,11.27
2018-11-04T06:03:02.053Z,11.25
2018-11-04T06:04:02.033Z,11.25
2018-11-04T06:05:02.045Z,11.25
2018-11-04T06:06:02.046Z,11.22
2018-11-04T06:07:02.024Z,11.25
2018-11-04T06:08:02.069Z,11.25
2018-11-04T06:09:02.037Z,11.27
2018-11-04T06:10:02.112Z,11.27
2018-11-04T06:11:02.063Z,11.24
2018-11-04T06:12:02.009Z,11.24
2018-11-04T06:13:02.071Z,11.24
2018-11-04T06:14:02.298Z,11.24
2018-11-04T06:15:02.016Z,11.25
2018-11-04T06:16:02.368Z,11.24
2018-11-04T06:17:02.057Z,11.24
2018-11-04T06:18:02.014Z,11.24
2018-11-04T06:19:02.162Z,11.25
2018-11-04T06:20:02.043Z,11.24
2018-11-04T06:21:02.007Z,11.24
2018-11-04T06:22:02.261Z,11.28
2018-11-04T06:23:01.996Z,11.24
2018-11-04T06:24:02.173Z,11.28
2018-11-04T06:25:02.441Z,11.24
2018-11-04T06:26:02.415Z,11.24
2018-11-04T06:27:02.023Z,11.25
2018-11-04T06:28:02.137Z,11.27
2018-11-04T06:29:02.318Z,11.25
2018-11-04T06:30:02.306Z,11.27
2018-11-04T06:31:02.076Z,11.24
2018-11-04T06:32:02.309Z,11.27
2018-11-04T06:33:02.083Z,11.25
2018-11-04T06:34:02.081Z,11.25
2018-11-04T06:35:02.068Z,11.24
2018-11-04T06:36:02.378Z,11.25
2018-11-04T06:37:02.147Z,11.22
2018-11-04T06:38:02.250Z,11.22
2018-11-04T06:39:02.302Z,11.25
2018-11-04T06:40:02.151Z,11.25
2018-11-04T06:41:02.437Z,11.24
2018-11-04T06:42:02.183Z,11.24
2018-11-04T06:43:02.221Z,11.25
2018-11-04T06:44:02.019Z,11.27
2018-11-04T06:45:02.136Z,11.28
2018-11-04T06:46:02.171Z,11.28
2018-11-04T06:47:02.366Z,11.25
2018-11-04T06:48:02.473Z,11.27
2018-11-04T06:49:01.972Z,11.27
2018-11-04T06:50:02.069Z,11.28
2018-11-04T06:51:02.173Z,11.25
2018-11-04T06:52:02.344Z,11.28
2018-11-04T06:53:01.998Z,11.27
2018-11-04T06:54:02.030Z,11.27
2018-11-04T06:55:02.039Z,11.27
2018-11-04T06:56:02.091Z,11.3
2018-11-04T06:57:02.425Z,11.27
2018-11-04T06:58:02.025Z,11.27
2018-11-04T06:59:01.973Z,11.3
2018-11-04T07:00:02.570Z,11.28
2018-11-04T07:01:02.069Z,11.28
2018-11-04T07:02:02.166Z,11.3
2018-11-04T07:03:02.213Z,11.3
2018-11-04T07:04:02.026Z,11.31
2018-11-04T07:05:01.973Z,11.31
2018-11-04T07:06:02.306Z,11.31
2018-11-04T07:07:02.252Z,11.34
2018-11-04T07:08:02.097Z,11.31
2018-11-04T07:09:02.911Z,11.32
2018-11-04T07:10:02.057Z,11.32
2018-11-04T07:11:02.032Z,11.34
2018-11-04T07:12:01.958Z,11.35
2018-11-04T07:13:02.017Z,11.34
2018-11-04T07:14:02.028Z,11.34
2018-11-04T07:15:02.195Z,11.31
2018-11-04T07:16:02.015Z,11.31
2018-11-04T07:17:02.106Z,11.31
2018-11-04T07:18:01.969Z,11.35
2018-11-04T07:19:02.159Z,11.35
2018-11-04T07:20:03.087Z,11.35
2018-11-04T07:21:02.080Z,11.34
2018-11-04T07:22:02.096Z,11.35
2018-11-04T07:23:02.054Z,11.35
2018-11-04T07:24:02.294Z,11.37
2018-11-04T07:25:01.990Z,11.38
2018-11-04T07:26:02.354Z,11.35
2018-11-04T07:27:02.014Z,11.34
2018-11-04T07:28:02.121Z,11.32
2018-11-04T07:29:02.334Z,11.37
2018-11-04T07:30:02.404Z,11.37
2018-11-04T07:31:02.101Z,11.34
2018-11-04T07:32:02.305Z,11.35
2018-11-04T07:33:01.950Z,11.34
2018-11-04T07:34:01.992Z,11.35
2018-11-04T07:35:01.957Z,11.35
2018-11-04T07:36:01.999Z,11.34
2018-11-04T07:37:01.997Z,11.35
2018-11-04T07:38:01.914Z,11.37
2018-11-04T07:39:01.995Z,11.38
2018-11-04T07:40:02.184Z,11.38
2018-11-04T07:41:01.899Z,11.39
2018-11-04T07:42:01.981Z,11.38
2018-11-04T07:43:01.919Z,11.38
2018-11-04T07:44:02.096Z,11.41
2018-11-04T07:45:01.951Z,11.39
2018-11-04T07:46:02.018Z,11.41
2018-11-04T07:47:02.224Z,11.39
2018-11-04T07:48:02.001Z,11.41
2018-11-04T07:49:01.978Z,11.42
2018-11-04T07:50:01.934Z,11.42
2018-11-04T07:51:01.937Z,11.44
2018-11-04T07:52:02.003Z,11.41
2018-11-04T07:53:02.117Z,11.44
2018-11-04T07:54:02.336Z,11.42
2018-11-04T07:55:01.968Z,11.41
2018-11-04T07:56:02.042Z,11.44
2018-11-04T07:57:02.359Z,11.42
2018-11-04T07:58:01.909Z,11.42
2018-11-04T07:59:02.056Z,11.45
2018-11-04T08:00:01.963Z,11.44
2018-11-04T08:01:02.819Z,11.45
2018-11-04T08:02:02.202Z,11.45
2018-11-04T08:03:01.923Z,11.48
2018-11-04T08:04:02.505Z,11.45
2018-11-04T08:05:02.339Z,11.48
2018-11-04T08:06:01.902Z,11.49
2018-11-04T08:07:02.392Z,11.48
2018-11-04T08:08:02.157Z,11.48
2018-11-04T08:09:02.267Z,11.49
2018-11-04T08:10:02.342Z,11.49
2018-11-04T08:11:01.922Z,11.49
2018-11-04T08:12:02.038Z,11.52
2018-11-04T08:13:01.934Z,11.49
2018-11-04T08:14:01.898Z,11.48
2018-11-04T08:15:02.011Z,11.52
2018-11-04T08:16:02.027Z,11.51
2018-11-04T08:17:02.010Z,11.49
2018-11-04T08:18:01.950Z,11.52
2018-11-04T08:19:02.039Z,11.52
2018-11-04T08:20:02.015Z,11.54
2018-11-04T08:21:02.231Z,11.55
2018-11-04T08:22:01.936Z,11.54
2018-11-04T08:23:01.988Z,11.55
2018-11-04T08:24:01.897Z,11.58
2018-11-04T08:25:02.133Z,11.54
2018-11-04T08:26:01.979Z,11.55
2018-11-04T08:27:02.245Z,11.55
2018-11-04T08:28:01.927Z,11.58
2018-11-04T08:29:01.854Z,11.56
2018-11-04T08:30:02.023Z,11.56
2018-11-04T08:31:02.262Z,11.58
2018-11-04T08:32:02.060Z,11.58
2018-11-04T08:33:01.891Z,11.59
2018-11-04T08:34:02.226Z,11.56
2018-11-04T08:35:01.916Z,11.58
2018-11-04T08:36:02.240Z,11.59
2018-11-04T08:37:02.251Z,11.61
2018-11-04T08:38:02.261Z,11.64
2018-11-04T08:39:02.206Z,11.58
2018-11-04T08:40:02.814Z,11.62
2018-11-04T08:41:02.161Z,11.62
2018-11-04T08:42:02.177Z,11.62
2018-11-04T08:43:01.945Z,11.64
2018-11-04T08:44:02.088Z,11.64
2018-11-04T08:45:02.138Z,11.65
2018-11-04T08:46:01.851Z,11.64
2018-11-04T08:47:02.123Z,11.64
2018-11-04T08:48:02.313Z,11.66
2018-11-04T08:49:01.853Z,11.66
2018-11-04T08:50:01.830Z,11.66
2018-11-04T08:51:01.842Z,11.66
2018-11-04T08:52:02.042Z,11.66
2018-11-04T08:53:02.063Z,11.69
2018-11-04T08:54:02.313Z,11.68
2018-11-04T08:55:02.061Z,11.7
2018-11-04T08:56:02.212Z,11.69
2018-11-04T08:57:01.920Z,11.69
2018-11-04T08:58:02.011Z,11.72
2018-11-04T08:59:02.096Z,11.7
2018-11-04T09:00:02.050Z,11.72
2018-11-04T09:01:02.104Z,11.69
2018-11-04T09:02:01.813Z,11.72
2018-11-04T09:03:01.799Z,11.72
2018-11-04T09:04:01.830Z,11.73
2018-11-04T09:05:01.827Z,11.75
2018-11-04T09:06:01.830Z,11.76
2018-11-04T09:07:01.837Z,11.73
2018-11-04T09:08:01.844Z,11.76
2018-11-04T09:09:01.795Z,11.76
2018-11-04T09:10:01.795Z,11.76
2018-11-04T09:11:01.786Z,11.79
2018-11-04T09:12:01.810Z,11.79
2018-11-04T09:13:01.781Z,11.77
2018-11-04T09:14:01.918Z,11.77
2018-11-04T09:15:01.812Z,11.8
2018-11-04T09:16:02.051Z,11.79
2018-11-04T09:17:02.046Z,11.79
2018-11-04T09:18:01.795Z,11.8
2018-11-04T09:19:01.804Z,11.83
2018-11-04T09:20:01.785Z,11.82
2018-11-04T09:21:01.830Z,11.83
2018-11-04T09:22:02.660Z,11.84
2018-11-04T09:23:01.795Z,11.84
2018-11-04T09:24:01.966Z,11.86
2018-11-04T09:25:01.794Z,11.87
2018-11-04T09:26:01.788Z,11.86
2018-11-04T09:27:02.004Z,11.87
2018-11-04T09:28:02.263Z,11.9
2018-11-04T09:29:01.908Z,11.9
2018-11-04T09:30:01.767Z,11.89
2018-11-04T09:31:02.104Z,11.92
2018-11-04T09:32:01.818Z,11.93
2018-11-04T09:33:01.829Z,11.96
2018-11-04T09:34:01.853Z,11.97
2018-11-04T09:35:02.682Z,11.96
2018-11-04T09:36:02.976Z,11.96
2018-11-04T09:37:01.918Z,11.96
2018-11-04T09:38:01.751Z,11.98
2018-11-04T09:39:02.066Z,11.97
2018-11-04T09:40:03.020Z,11.98
2018-11-04T09:41:02.063Z,12
2018-11-04T09:42:01.787Z,12
2018-11-04T09:43:02.020Z,12.03
2018-11-04T09:44:01.803Z,12.01
2018-11-04T09:45:01.743Z,12.01
2018-11-04T09:46:02.108Z,12.01
2018-11-04T09:47:01.814Z,12.04
2018-11-04T09:48:03.555Z,12.01
2018-11-04T09:49:01.979Z,12.03
2018-11-04T09:50:02.920Z,12.03
2018-11-04T09:51:01.748Z,12.04
2018-11-04T09:52:02.673Z,12.04
2018-11-04T09:53:01.783Z,12.05
2018-11-04T09:54:01.816Z,12.05
2018-11-04T09:55:02.072Z,12.05
2018-11-04T09:56:01.882Z,12.05
2018-11-04T09:57:02.125Z,12.07
2018-11-04T09:58:02.018Z,12.08
2018-11-04T09:59:02.298Z,12.08
2018-11-04T10:00:01.762Z,12.11
2018-11-04T10:01:02.114Z,12.1
2018-11-04T10:02:05.043Z,12.1
2018-11-04T10:03:01.964Z,12.1
2018-11-04T10:04:01.748Z,12.11
2018-11-04T10:05:01.789Z,12.13
2018-11-04T10:06:02.147Z,12.13
2018-11-04T10:07:03.138Z,12.11
2018-11-04T10:08:01.733Z,12.13
2018-11-04T10:09:01.765Z,12.14
2018-11-04T10:10:07.308Z,12.14
2018-11-04T10:11:01.804Z,12.11
2018-11-04T10:12:01.924Z,12.13
2018-11-04T10:13:02.222Z,12.14
2018-11-04T10:14:02.027Z,12.14
2018-11-04T10:15:02.041Z,12.13
2018-11-04T10:16:02.088Z,12.13
2018-11-04T10:17:01.787Z,12.16
2018-11-04T10:18:01.708Z,12.13
2018-11-04T10:19:02.343Z,12.14
2018-11-04T10:20:03.523Z,12.16
2018-11-04T10:21:04.031Z,12.16
2018-11-04T10:22:01.739Z,12.16
2018-11-04T10:23:01.827Z,12.16
2018-11-04T10:24:02.092Z,12.17
2018-11-04T10:25:01.709Z,12.16
2018-11-04T10:26:01.736Z,12.17
2018-11-04T10:27:01.714Z,12.18
2018-11-04T10:28:01.780Z,12.17
2018-11-04T10:29:01.771Z,12.18
2018-11-04T10:30:02.220Z,12.2
2018-11-04T10:31:01.717Z,12.23
2018-11-04T10:32:02.024Z,12.24
2018-11-04T10:33:01.876Z,12.23
2018-11-04T10:34:01.974Z,12.23
2018-11-04T10:35:01.749Z,12.24
2018-11-04T10:36:01.687Z,12.25
2018-11-04T10:37:01.852Z,12.25
2018-11-04T10:38:01.926Z,12.27
2018-11-04T10:39:01.738Z,12.25
2018-11-04T10:40:01.695Z,12.27
2018-11-04T10:41:01.730Z,12.27
2018-11-04T10:42:01.709Z,12.27
2018-11-04T10:43:01.827Z,12.28
2018-11-04T10:44:01.725Z,12.29
2018-11-04T10:45:01.696Z,12.29
2018-11-04T10:46:01.740Z,12.27
2018-11-04T10:47:01.709Z,12.29
2018-11-04T10:48:01.655Z,12.28
2018-11-04T10:49:01.741Z,12.29
2018-11-04T10:50:02.435Z,12.31
2018-11-04T10:51:01.677Z,12.31
2018-11-04T10:52:01.932Z,12.29
2018-11-04T10:53:01.751Z,12.31
2018-11-04T10:54:02.030Z,12.32
2018-11-04T10:55:01.735Z,12.31
2018-11-04T10:56:01.676Z,12.32
2018-11-04T10:57:01.764Z,12.34
2018-11-04T10:58:01.883Z,12.32
2018-11-04T10:59:01.694Z,12.34
2018-11-04T11:00:01.743Z,12.32
2018-11-04T11:01:01.840Z,12.35
2018-11-04T11:02:01.978Z,12.35
2018-11-04T11:03:01.835Z,12.34
2018-11-04T11:04:01.664Z,12.35
2018-11-04T11:05:01.733Z,12.38
2018-11-04T11:06:02.158Z,12.35
2018-11-04T11:07:01.741Z,12.37
2018-11-04T11:08:01.658Z,12.35
2018-11-04T11:09:01.741Z,12.38
2018-11-04T11:10:01.682Z,12.35
2018-11-04T11:11:01.980Z,12.37
2018-11-04T11:12:01.671Z,12.41
2018-11-04T11:13:01.767Z,12.44
2018-11-04T11:14:01.762Z,12.42
2018-11-04T11:15:01.692Z,12.44
2018-11-04T11:16:09.663Z,12.48
2018-11-04T11:17:01.708Z,12.46
2018-11-04T11:18:01.652Z,12.46
2018-11-04T11:19:01.796Z,12.48
2018-11-04T11:20:25.860Z,12.49
2018-11-04T11:22:12.655Z,12.52
2018-11-04T11:23:02.539Z,12.53
2018-11-04T11:24:02.517Z,12.52
2018-11-04T11:25:04.869Z,12.55
2018-11-04T11:27:01.712Z,12.56
2018-11-04T11:29:20.045Z,12.6
2018-11-04T11:30:09.481Z,12.62
2018-11-04T11:31:09.635Z,12.65
2018-11-04T11:33:05.894Z,12.65
2018-11-04T11:40:05.844Z,12.66
2018-11-04T11:40:06.065Z,12.63
2018-11-04T11:41:02.377Z,12.66
2018-11-04T11:48:06.848Z,12.72
2018-11-04T11:49:14.957Z,12.73
2018-11-04T11:50:02.305Z,12.73
2018-11-04T11:51:02.342Z,12.74
2018-11-04T11:52:02.278Z,12.74
2018-11-04T11:54:02.368Z,12.79
2018-11-04T11:55:07.928Z,12.79
2018-11-04T11:56:02.921Z,12.8
2018-11-04T11:58:02.393Z,12.79
2018-11-04T11:59:02.393Z,12.82
2018-11-04T12:00:02.484Z,12.84
2018-11-04T12:01:02.331Z,12.86
2018-11-04T12:02:02.417Z,12.84
2018-11-04T12:03:02.289Z,12.88
2018-11-04T12:04:02.477Z,12.87
2018-11-04T12:05:02.924Z,12.9
2018-11-04T12:06:02.502Z,12.9
2018-11-04T12:07:02.358Z,12.91
2018-11-04T12:08:02.329Z,12.93
2018-11-04T12:09:02.341Z,12.91
2018-11-04T12:10:02.442Z,12.93
2018-11-04T12:11:02.465Z,12.96
2018-11-04T12:12:02.372Z,12.93
2018-11-04T12:13:02.505Z,12.93
2018-11-04T12:14:02.323Z,12.91
2018-11-04T12:15:02.357Z,12.91
2018-11-04T12:16:02.302Z,12.91
2018-11-04T12:17:02.400Z,12.91
2018-11-04T12:18:02.293Z,12.88
2018-11-04T12:19:02.657Z,12.9
2018-11-04T12:20:02.682Z,12.88
2018-11-04T12:21:02.329Z,12.87
2018-11-04T12:22:02.359Z,12.86
2018-11-04T12:23:02.683Z,12.86
2018-11-04T12:24:02.316Z,12.84
2018-11-04T12:25:02.290Z,12.84
2018-11-04T12:26:02.620Z,12.83
2018-11-04T12:27:02.320Z,12.84
2018-11-04T12:28:02.299Z,12.84
2018-11-04T12:29:02.701Z,12.83
2018-11-04T12:30:02.294Z,12.82
2018-11-04T12:31:02.429Z,12.82
2018-11-04T12:32:02.560Z,12.8
2018-11-04T12:33:02.271Z,12.8
2018-11-04T12:34:02.263Z,12.79
2018-11-04T12:35:02.460Z,12.79
2018-11-04T12:36:02.406Z,12.76
2018-11-04T12:37:02.352Z,12.77
2018-11-04T12:38:02.306Z,12.79
2018-11-04T12:39:02.412Z,12.79
2018-11-04T12:40:02.726Z,12.76
2018-11-04T12:41:02.359Z,12.76
2018-11-04T12:42:02.487Z,12.79
2018-11-04T12:43:02.394Z,12.79
2018-11-04T12:44:02.419Z,12.77
2018-11-04T12:45:02.349Z,12.8
2018-11-04T12:46:02.346Z,12.8
2018-11-04T12:47:02.318Z,12.82
2018-11-04T12:48:02.341Z,12.8
2018-11-04T12:49:02.350Z,12.8
2018-11-04T12:50:02.321Z,12.82
2018-11-04T12:51:02.463Z,12.83
2018-11-04T12:52:02.479Z,12.83
2018-11-04T12:53:02.366Z,12.83
2018-11-04T12:54:02.250Z,12.83
2018-11-04T12:55:02.315Z,12.84
2018-11-04T12:56:02.229Z,12.84
2018-11-04T12:57:02.342Z,12.83
2018-11-04T12:58:02.384Z,12.84
2018-11-04T12:59:02.348Z,12.86
2018-11-04T13:00:02.267Z,12.86
2018-11-04T13:01:02.226Z,12.87
2018-11-04T13:02:03.038Z,12.87
2018-11-04T13:03:02.312Z,12.9
2018-11-04T13:04:02.537Z,12.86
2018-11-04T13:05:02.374Z,12.86
2018-11-04T13:06:02.283Z,12.87
2018-11-04T13:07:02.558Z,12.86
2018-11-04T13:08:02.245Z,12.86
2018-11-04T13:09:02.215Z,12.86
2018-11-04T13:10:02.348Z,12.88
2018-11-04T13:11:02.510Z,12.87
2018-11-04T13:12:02.260Z,12.88